createdAt,value
2022-10-05T00:00:00.085Z,100778.81
2022-10-05T00:02:26.855Z,100785.84
2022-10-05T00:04:56.564Z,100779.84
2022-10-05T00:07:24.652Z,100781.66
2022-10-05T00:09:57.483Z,100774.75
2022-10-05T00:12:26.248Z,100770.34
2022-10-05T00:15:00.017Z,100761.88
2022-10-05T00:17:29.431Z,100773.13
2022-10-05T00:19:55.946Z,100777.56
2022-10-05T00:22:24.064Z,100781.91
2022-10-05T00:24:56.298Z,100786.34
2022-10-05T00:27:26.059Z,100786.44
2022-10-05T00:29:57.369Z,100788.13
2022-10-05T00:32:23.762Z,100782.91
2022-10-05T00:34:50.200Z,100785.56
2022-10-05T00:37:16.694Z,100790.91
2022-10-05T00:39:43.368Z,100791.75
2022-10-05T00:42:50.048Z,100786.56
2022-10-05T00:45:24.298Z,100788.50
2022-10-05T00:47:53.699Z,100787.75
2022-10-05T00:50:48.669Z,100780.81
2022-10-05T00:53:45.003Z,100777.50
2022-10-05T00:56:31.448Z,100788.88
2022-10-05T00:59:15.043Z,100796.03
2022-10-05T01:02:03.080Z,100784.75
2022-10-05T01:04:54.178Z,100790.03
2022-10-05T01:07:38.476Z,100784.81
2022-10-05T01:10:29.515Z,100783.06
2022-10-05T01:13:15.215Z,100788.28
2022-10-05T01:16:07.814Z,100772.53
2022-10-05T01:18:46.261Z,100770.91
2022-10-05T01:21:15.649Z,100761.47
2022-10-05T01:23:48.108Z,100764.16
2022-10-05T01:26:43.067Z,100754.56
2022-10-05T01:29:24.034Z,100753.81
2022-10-05T01:31:58.541Z,100753.44
2022-10-05T01:34:38.066Z,100749.16
2022-10-05T01:37:28.773Z,100749.34
2022-10-05T01:40:12.576Z,100744.94
2022-10-05T01:42:42.006Z,100744.94
2022-10-05T01:45:11.335Z,100742.50
2022-10-05T01:47:43.644Z,100741.66
2022-10-05T01:50:20.121Z,100745.13
2022-10-05T01:53:21.269Z,100752.13
2022-10-05T01:55:56.651Z,100746.97
2022-10-05T01:58:37.563Z,100752.06
2022-10-05T02:01:19.974Z,100751.22
2022-10-05T02:04:13.417Z,100758.97
2022-10-05T02:06:50.809Z,100757.38
2022-10-05T02:09:31.824Z,100753.09
2022-10-05T02:12:03.113Z,100754.03
2022-10-05T02:14:42.912Z,100761.03
2022-10-05T02:17:20.073Z,100758.50
2022-10-05T02:19:50.859Z,100760.25
2022-10-05T02:22:26.468Z,100763.69
2022-10-05T02:25:00.707Z,100762.91
2022-10-05T02:27:29.630Z,100762.06
2022-10-05T02:30:01.889Z,100766.28
2022-10-05T02:32:32.573Z,100767.13
2022-10-05T02:35:09.296Z,100769.06
2022-10-05T02:37:41.705Z,100765.63
2022-10-05T02:40:45.730Z,100765.56
2022-10-05T02:43:43.301Z,100770.75
2022-10-05T02:46:29.548Z,100769.97
2022-10-05T02:49:28.294Z,100761.31
2022-10-05T02:52:17.017Z,100755.41
2022-10-05T02:55:10.310Z,100760.66
2022-10-05T02:57:36.758Z,100758.06
2022-10-05T03:00:13.192Z,100748.56
2022-10-05T03:02:48.537Z,100748.88
2022-10-05T03:05:37.548Z,100735.09
2022-10-05T03:08:15.397Z,100736.84
2022-10-05T03:11:07.062Z,100743.44
2022-10-05T03:13:47.725Z,100741.81
2022-10-05T03:16:42.595Z,100729.06
2022-10-05T03:19:11.981Z,100726.19
2022-10-05T03:21:56.440Z,100731.75
2022-10-05T03:24:56.915Z,100724.25
2022-10-05T03:27:44.035Z,100721.78
2022-10-05T03:30:16.330Z,100717.69
2022-10-05T03:33:09.360Z,100719.53
2022-10-05T03:35:48.187Z,100716.94
2022-10-05T03:38:27.366Z,100713.41
2022-10-05T03:41:11.544Z,100716.03
2022-10-05T03:43:43.875Z,100712.50
2022-10-05T03:46:26.094Z,100715.78
2022-10-05T03:49:10.020Z,100717.59
2022-10-05T03:51:51.284Z,100713.81
2022-10-05T03:54:34.885Z,100710.41
2022-10-05T03:57:13.461Z,100707.78
2022-10-05T04:00:16.045Z,100692.78
2022-10-05T04:03:02.453Z,100700.41
2022-10-05T04:05:35.504Z,100704.66
2022-10-05T04:08:18.240Z,100705.44
2022-10-05T04:11:01.662Z,100708.16
2022-10-05T04:13:46.725Z,100705.50
2022-10-05T04:16:28.220Z,100718.47
2022-10-05T04:18:57.301Z,100714.13
2022-10-05T04:21:41.297Z,100714.06
2022-10-05T04:24:49.498Z,100719.19
2022-10-05T04:27:27.926Z,100726.16
2022-10-05T04:30:05.237Z,100718.53
2022-10-05T04:32:42.955Z,100723.06
2022-10-05T04:35:23.816Z,100725.53
2022-10-05T04:38:17.440Z,100724.81
2022-10-05T04:41:10.102Z,100730.25
2022-10-05T04:43:42.851Z,100734.66
2022-10-05T04:46:21.269Z,100739.97
2022-10-05T04:49:25.270Z,100731.25
2022-10-05T04:52:10.046Z,100735.88
2022-10-05T04:54:48.801Z,100737.81
2022-10-05T04:57:39.622Z,100737.13
2022-10-05T05:00:13.742Z,100724.25
2022-10-05T05:03:08.124Z,100736.44
2022-10-05T05:06:12.439Z,100725.19
2022-10-05T05:09:00.732Z,100735.78
2022-10-05T05:11:51.420Z,100734.22
2022-10-05T05:14:48.318Z,100740.44
2022-10-05T05:17:20.761Z,100736.25
2022-10-05T05:19:53.169Z,100745.63
2022-10-05T05:22:40.729Z,100743.88
2022-10-05T05:25:33.715Z,100752.31
2022-10-05T05:28:40.959Z,100741.91
2022-10-05T05:31:24.413Z,100750.50
2022-10-05T05:34:29.047Z,100752.25
2022-10-05T05:37:01.214Z,100752.09
2022-10-05T05:40:01.729Z,100751.06
2022-10-05T05:42:47.041Z,100753.59
2022-10-05T05:45:31.907Z,100755.09
2022-10-05T05:48:02.079Z,100767.94
2022-10-05T05:50:34.455Z,100761.84
2022-10-05T05:53:23.724Z,100759.03
2022-10-05T05:55:56.108Z,100765.09
2022-10-05T05:58:27.379Z,100770.06
2022-10-05T06:01:32.208Z,100768.38
2022-10-05T06:04:03.543Z,100781.13
2022-10-05T06:06:35.746Z,100781.75
2022-10-05T06:09:11.333Z,100775.47
2022-10-05T06:11:46.996Z,100785.53
2022-10-05T06:14:22.194Z,100791.75
2022-10-05T06:17:00.574Z,100790.09
2022-10-05T06:19:28.828Z,100796.31
2022-10-05T06:22:14.926Z,100808.31
2022-10-05T06:25:11.412Z,100800.50
2022-10-05T06:28:02.682Z,100804.78
2022-10-05T06:30:59.530Z,100808.19
2022-10-05T06:33:44.761Z,100814.06
2022-10-05T06:36:45.464Z,100810.53
2022-10-05T06:39:27.006Z,100818.13
2022-10-05T06:42:16.811Z,100811.16
2022-10-05T06:45:12.801Z,100815.28
2022-10-05T06:47:53.629Z,100814.06
2022-10-05T06:50:41.130Z,100821.50
2022-10-05T06:53:35.503Z,100814.31
2022-10-05T06:56:21.185Z,100823.38
2022-10-05T06:59:17.445Z,100818.25
2022-10-05T07:01:51.654Z,100817.88
2022-10-05T07:04:59.732Z,100815.19
2022-10-05T07:07:35.435Z,100808.00
2022-10-05T07:10:07.838Z,100810.50
2022-10-05T07:12:53.045Z,100818.25
2022-10-05T07:15:33.770Z,100804.44
2022-10-05T07:18:06.424Z,100809.50
2022-10-05T07:20:48.251Z,100814.53
2022-10-05T07:23:21.943Z,100811.66
2022-10-05T07:26:09.781Z,100808.03
2022-10-05T07:28:39.011Z,100807.44
2022-10-05T07:31:24.005Z,100806.84
2022-10-05T07:34:15.329Z,100809.78
2022-10-05T07:37:13.706Z,100811.16
2022-10-05T07:40:06.290Z,100808.88
2022-10-05T07:42:51.993Z,100808.50
2022-10-05T07:45:28.606Z,100808.19
2022-10-05T07:47:57.828Z,100807.03
2022-10-05T07:50:26.769Z,100815.78
2022-10-05T07:53:01.651Z,100814.41
2022-10-05T07:55:39.370Z,100814.41
2022-10-05T07:58:21.472Z,100812.63
2022-10-05T08:01:03.194Z,100814.63
2022-10-05T08:03:49.410Z,100814.34
2022-10-05T08:06:48.898Z,100810.19
2022-10-05T08:09:39.005Z,100812.72
2022-10-05T08:12:24.277Z,100813.44
2022-10-05T08:15:06.715Z,100807.09
2022-10-05T08:18:00.464Z,100810.84
2022-10-05T08:20:26.909Z,100799.94
2022-10-05T08:23:28.427Z,100802.47
2022-10-05T08:26:19.273Z,100802.25
2022-10-05T08:28:55.931Z,100802.31
2022-10-05T08:31:31.863Z,100799.00
2022-10-05T08:34:22.589Z,100801.63
2022-10-05T08:37:17.907Z,100802.25
2022-10-05T08:40:15.258Z,100802.28
2022-10-05T08:43:01.286Z,100794.69
2022-10-05T08:45:46.643Z,100795.66
2022-10-05T08:48:45.665Z,100794.38
2022-10-05T08:51:26.953Z,100791.38
2022-10-05T08:54:35.371Z,100790.47
2022-10-05T08:57:36.505Z,100792.53
2022-10-05T09:00:02.936Z,100788.75
2022-10-05T09:02:57.867Z,100785.53
2022-10-05T09:05:46.450Z,100783.47
2022-10-05T09:08:37.361Z,100781.22
2022-10-05T09:11:35.481Z,100781.97
2022-10-05T09:14:01.843Z,100779.06
2022-10-05T09:16:51.520Z,100778.50
2022-10-05T09:19:23.881Z,100777.78
2022-10-05T09:22:12.103Z,100771.53
2022-10-05T09:24:53.751Z,100775.09
2022-10-05T09:27:28.160Z,100772.81
2022-10-05T09:30:16.443Z,100766.75
2022-10-05T09:33:07.230Z,100768.53
2022-10-05T09:35:58.168Z,100770.38
2022-10-05T09:38:59.317Z,100761.03
2022-10-05T09:41:54.780Z,100764.03
2022-10-05T09:45:08.801Z,100756.09
2022-10-05T09:47:59.874Z,100757.13
2022-10-05T09:50:40.058Z,100752.28
2022-10-05T09:53:28.235Z,100743.84
2022-10-05T09:56:21.108Z,100751.44
2022-10-05T09:59:21.449Z,100739.06
2022-10-05T10:02:18.720Z,100739.34
2022-10-05T10:05:16.279Z,100737.75
2022-10-05T10:07:58.527Z,100737.84
2022-10-05T10:10:49.741Z,100735.19
2022-10-05T10:13:38.200Z,100727.13
2022-10-05T10:16:40.268Z,100733.00
2022-10-05T10:19:28.276Z,100729.47
2022-10-05T10:22:25.144Z,100726.50
2022-10-05T10:25:42.609Z,100722.97
2022-10-05T10:28:34.333Z,100713.03
2022-10-05T10:31:12.822Z,100710.66
2022-10-05T10:33:49.917Z,100715.25
2022-10-05T10:36:22.438Z,100710.19
2022-10-05T10:39:20.878Z,100708.63
2022-10-05T10:42:29.891Z,100713.59
2022-10-05T10:45:17.057Z,100706.50
2022-10-05T10:48:05.017Z,100714.22
2022-10-05T10:51:13.340Z,100712.31
2022-10-05T10:54:36.951Z,100718.22
2022-10-05T10:57:06.420Z,100717.03
2022-10-05T10:59:57.553Z,100713.00
2022-10-05T11:02:37.933Z,100712.28
2022-10-05T11:05:07.004Z,100705.41
2022-10-05T11:07:42.846Z,100698.06
2022-10-05T11:10:43.362Z,100697.16
2022-10-05T11:13:31.308Z,100697.66
2022-10-05T11:16:19.896Z,100695.28
2022-10-05T11:19:04.758Z,100686.25
2022-10-05T11:21:56.191Z,100688.31
2022-10-05T11:24:38.612Z,100681.41
2022-10-05T11:30:20.949Z,100679.72
2022-10-05T11:33:19.681Z,100677.38
2022-10-05T11:36:19.780Z,100667.63
2022-10-05T11:39:04.712Z,100668.81
2022-10-05T11:42:01.978Z,100659.41
2022-10-05T11:45:03.719Z,100650.50
2022-10-05T11:47:37.582Z,100656.25
2022-10-05T11:50:09.718Z,100654.25
2022-10-05T11:52:44.887Z,100662.06
2022-10-05T11:55:37.491Z,100650.25
2022-10-05T11:58:15.883Z,100652.03
2022-10-05T12:01:04.400Z,100650.22
2022-10-05T12:04:06.062Z,100649.50
2022-10-05T12:06:41.459Z,100633.91
2022-10-05T12:09:23.191Z,100634.50
2022-10-05T12:12:27.004Z,100624.25
2022-10-05T12:15:08.782Z,100624.09
2022-10-05T12:17:46.783Z,100622.47
2022-10-05T12:20:20.149Z,100621.66
2022-10-05T12:22:58.583Z,100621.53
2022-10-05T12:25:31.802Z,100622.81
2022-10-05T12:28:04.913Z,100620.88
2022-10-05T12:30:54.771Z,100614.63
2022-10-05T12:33:44.103Z,100610.03
2022-10-05T12:36:59.235Z,100603.31
2022-10-05T12:39:31.204Z,100609.22
2022-10-05T12:42:10.058Z,100606.16
2022-10-05T12:44:49.114Z,100605.91
2022-10-05T12:47:53.869Z,100597.94
2022-10-05T12:50:28.519Z,100606.34
2022-10-05T12:53:14.601Z,100598.66
2022-10-05T12:55:53.619Z,100600.88
2022-10-05T12:59:00.681Z,100600.03
2022-10-05T13:01:48.767Z,100591.78
2022-10-05T13:04:24.292Z,100586.91
2022-10-05T13:07:20.964Z,100594.03
2022-10-05T13:10:04.040Z,100590.25
2022-10-05T13:13:05.935Z,100587.75
2022-10-05T13:15:44.293Z,100583.38
2022-10-05T13:18:34.992Z,100582.06
2022-10-05T13:21:12.641Z,100576.22
2022-10-05T13:23:57.695Z,100580.22
2022-10-05T13:26:31.714Z,100576.19
2022-10-05T13:29:01.519Z,100575.47
2022-10-05T13:31:40.880Z,100578.13
2022-10-05T13:34:22.880Z,100570.44
2022-10-05T13:37:03.485Z,100567.06
2022-10-05T13:39:35.653Z,100569.84
2022-10-05T13:42:11.132Z,100567.31
2022-10-05T13:44:46.365Z,100561.31
2022-10-05T13:47:16.839Z,100565.19
2022-10-05T13:50:17.493Z,100562.47
2022-10-05T13:52:43.945Z,100555.97
2022-10-05T13:55:35.677Z,100559.44
2022-10-05T13:58:05.749Z,100558.69
2022-10-05T14:00:39.584Z,100552.81
2022-10-05T14:03:23.154Z,100555.13
2022-10-05T14:05:58.620Z,100556.38
2022-10-05T14:08:32.582Z,100559.16
2022-10-05T14:10:59.288Z,100543.66
2022-10-05T14:13:28.689Z,100558.16
2022-10-05T14:16:13.271Z,100550.97
2022-10-05T14:19:10.396Z,100549.34
2022-10-05T14:21:49.731Z,100544.66
2022-10-05T14:24:43.530Z,100551.59
2022-10-05T14:27:33.288Z,100547.75
2022-10-05T14:30:20.015Z,100543.25
2022-10-05T14:33:16.979Z,100549.22
2022-10-05T14:35:55.533Z,100539.81
2022-10-05T14:38:55.150Z,100539.09
2022-10-05T14:41:27.443Z,100533.53
2022-10-05T14:44:09.235Z,100537.25
2022-10-05T14:46:36.698Z,100535.59
2022-10-05T14:49:29.049Z,100532.16
2022-10-05T14:51:56.599Z,100520.72
2022-10-05T14:54:35.463Z,100524.28
2022-10-05T14:57:25.263Z,100523.75
2022-10-05T15:00:02.357Z,100526.50
2022-10-05T15:02:53.255Z,100528.75
2022-10-05T15:05:41.145Z,100522.84
2022-10-05T15:08:36.976Z,100519.34
2022-10-05T15:11:07.472Z,100527.84
2022-10-05T15:13:40.144Z,100520.50
2022-10-05T15:16:24.990Z,100521.19
2022-10-05T15:19:31.141Z,100518.00
2022-10-05T15:22:01.047Z,100525.03
2022-10-05T15:24:45.449Z,100517.31
2022-10-05T15:27:46.056Z,100521.50
2022-10-05T15:30:17.858Z,100512.34
2022-10-05T15:33:21.504Z,100521.25
2022-10-05T15:35:55.030Z,100513.72
2022-10-05T15:38:25.812Z,100517.31
2022-10-05T15:41:10.739Z,100519.34
2022-10-05T15:44:24.127Z,100513.06
2022-10-05T15:47:02.902Z,100507.91
2022-10-05T15:49:38.387Z,100513.72
2022-10-05T15:52:17.643Z,100509.50
2022-10-05T15:55:01.918Z,100507.03
2022-10-05T15:57:43.559Z,100509.69
2022-10-05T16:00:21.045Z,100504.81
2022-10-05T16:02:59.407Z,100505.69
2022-10-05T16:05:56.821Z,100506.00
2022-10-05T16:08:54.085Z,100501.97
2022-10-05T16:11:48.939Z,100500.63
2022-10-05T16:14:40.079Z,100502.44
2022-10-05T16:17:13.561Z,100507.91
2022-10-05T16:20:08.046Z,100503.72
2022-10-05T16:22:34.421Z,100500.09
2022-10-05T16:25:22.224Z,100504.41
2022-10-05T16:28:26.660Z,100507.88
2022-10-05T16:31:06.812Z,100514.31
2022-10-05T16:33:58.622Z,100517.09
2022-10-05T16:36:55.361Z,100512.91
2022-10-05T16:39:40.563Z,100518.78
2022-10-05T16:42:29.643Z,100519.75
2022-10-05T16:45:45.151Z,100525.16
2022-10-05T16:48:23.578Z,100521.53
2022-10-05T16:51:08.903Z,100527.19
2022-10-05T16:53:59.651Z,100529.78
2022-10-05T16:56:34.560Z,100537.44
2022-10-05T16:59:35.475Z,100539.53
2022-10-05T17:02:28.655Z,100546.59
2022-10-05T17:04:58.062Z,100545.84
2022-10-05T17:07:36.389Z,100550.53
2022-10-05T17:10:37.771Z,100553.81
2022-10-05T17:13:23.222Z,100569.88
2022-10-05T17:16:36.120Z,100572.59
2022-10-05T17:19:20.680Z,100581.81
2022-10-05T17:21:58.987Z,100584.50
2022-10-05T17:24:37.457Z,100591.63
2022-10-05T17:27:34.171Z,100596.09
2022-10-05T17:30:27.267Z,100600.72
2022-10-05T17:33:13.980Z,100599.41
2022-10-05T17:35:55.162Z,100608.75
2022-10-05T17:38:30.669Z,100603.16
2022-10-05T17:41:00.031Z,100611.31
2022-10-05T17:43:33.624Z,100609.38
2022-10-05T17:46:01.270Z,100618.63
2022-10-05T17:48:43.330Z,100615.75
2022-10-05T17:51:46.881Z,100628.69
2022-10-05T17:54:42.326Z,100634.84
2022-10-05T17:57:08.708Z,100633.78
2022-10-05T17:59:46.408Z,100639.16
2022-10-05T18:02:40.074Z,100643.31
2022-10-05T18:05:16.812Z,100647.59
2022-10-05T18:07:48.731Z,100649.59
2022-10-05T18:10:25.696Z,100656.16
2022-10-05T18:13:20.832Z,100661.06
2022-10-05T18:15:49.288Z,100654.94
2022-10-05T18:18:43.780Z,100664.28
2022-10-05T18:21:13.354Z,100666.75
2022-10-05T18:24:08.858Z,100678.13
2022-10-05T18:26:59.649Z,100676.56
2022-10-05T18:30:00.102Z,100679.31
2022-10-05T18:32:45.981Z,100690.94
2022-10-05T18:35:23.581Z,100700.13
2022-10-05T18:38:25.109Z,100703.66
2022-10-05T18:41:09.227Z,100704.72
2022-10-05T18:43:52.266Z,100700.66
2022-10-05T18:46:46.735Z,100704.47
2022-10-05T18:49:27.047Z,100706.91
2022-10-05T18:52:36.920Z,100716.41
2022-10-05T18:55:18.646Z,100722.09
2022-10-05T18:57:54.283Z,100726.75
2022-10-05T19:00:23.737Z,100732.00
2022-10-05T19:03:02.195Z,100731.38
2022-10-05T19:05:48.385Z,100733.69
2022-10-05T19:08:46.656Z,100734.22
2022-10-05T19:11:29.903Z,100741.25
2022-10-05T19:14:05.648Z,100732.22
2022-10-05T19:16:47.322Z,100737.88
2022-10-05T19:19:35.100Z,100740.81
2022-10-05T19:22:12.897Z,100742.94
2022-10-05T19:24:43.853Z,100741.38
2022-10-05T19:27:26.293Z,100744.34
2022-10-05T19:30:21.747Z,100746.34
2022-10-05T19:33:09.988Z,100751.25
2022-10-05T19:35:48.726Z,100756.91
2022-10-05T19:38:26.997Z,100768.47
2022-10-05T19:41:26.179Z,100775.16
2022-10-05T19:44:31.882Z,100775.38
2022-10-05T19:47:06.798Z,100785.25
2022-10-05T19:49:56.429Z,100791.56
2022-10-05T19:52:36.818Z,100794.34
2022-10-05T19:55:19.819Z,100795.41
2022-10-05T19:57:51.052Z,100802.75
2022-10-05T20:00:32.264Z,100802.09
2022-10-05T20:03:18.893Z,100808.28
2022-10-05T20:05:45.803Z,100809.25
2022-10-05T20:08:17.979Z,100815.44
2022-10-05T20:10:45.955Z,100814.41
2022-10-05T20:13:25.337Z,100814.59
2022-10-05T20:16:26.491Z,100815.63
2022-10-05T20:19:11.991Z,100815.53
2022-10-05T20:21:44.268Z,100820.50
2022-10-05T20:24:20.966Z,100821.72
2022-10-05T20:27:05.543Z,100825.88
2022-10-05T20:29:41.296Z,100834.19
2022-10-05T20:32:12.995Z,100838.50
2022-10-05T20:34:50.773Z,100847.34
2022-10-05T20:37:21.235Z,100847.25
2022-10-05T20:39:48.868Z,100847.25
2022-10-05T20:42:15.355Z,100853.44
2022-10-05T20:44:42.437Z,100862.25
2022-10-05T20:47:10.348Z,100857.75
2022-10-05T20:49:38.746Z,100867.53
2022-10-05T20:52:06.683Z,100876.44
2022-10-05T20:54:33.197Z,100872.03
2022-10-05T20:56:59.659Z,100871.94
2022-10-05T20:59:29.514Z,100871.38
2022-10-05T21:01:56.017Z,100874.19
2022-10-05T21:04:25.008Z,100874.25
2022-10-05T21:06:52.862Z,100873.81
2022-10-05T21:09:21.448Z,100885.53
2022-10-05T21:11:50.072Z,100885.69
2022-10-05T21:14:17.074Z,100899.47
2022-10-05T21:16:45.857Z,100903.22
2022-10-05T21:19:15.850Z,100906.84
2022-10-05T21:21:44.169Z,100905.16
2022-10-05T21:24:13.679Z,100905.53
2022-10-05T21:26:41.637Z,100905.31
2022-10-05T21:29:12.518Z,100905.22
2022-10-05T21:31:40.322Z,100902.03
2022-10-05T21:34:07.648Z,100908.41
2022-10-05T21:36:34.568Z,100909.91
2022-10-05T21:39:01.244Z,100911.59
2022-10-05T21:41:27.703Z,100914.22
2022-10-05T21:43:54.282Z,100914.50
2022-10-05T21:46:25.348Z,100921.06
2022-10-05T21:48:53.303Z,100923.59
2022-10-05T21:51:21.987Z,100922.50
2022-10-05T21:53:53.023Z,100924.34
2022-10-05T21:56:22.080Z,100924.00
2022-10-05T21:58:50.175Z,100930.44
2022-10-05T22:01:22.267Z,100930.19
2022-10-05T22:03:49.203Z,100932.81
2022-10-05T22:06:15.645Z,100931.03
2022-10-05T22:08:42.092Z,100935.28
2022-10-05T22:11:11.473Z,100936.31
2022-10-05T22:13:44.341Z,100942.69
2022-10-05T22:16:11.931Z,100938.50
2022-10-05T22:18:38.763Z,100926.81
2022-10-05T22:21:07.256Z,100938.00
2022-10-05T22:23:35.703Z,100934.34
2022-10-05T22:26:03.465Z,100936.22
2022-10-05T22:28:31.884Z,100941.28
2022-10-05T22:31:01.768Z,100946.91
2022-10-05T22:33:28.276Z,100941.75
2022-10-05T22:35:54.733Z,100945.31
2022-10-05T22:38:21.167Z,100946.22
2022-10-05T22:40:47.614Z,100955.09
2022-10-05T22:43:14.038Z,100967.16
2022-10-05T22:45:40.746Z,100969.59
2022-10-05T22:48:07.279Z,100974.84
2022-10-05T22:50:33.986Z,100973.91
2022-10-05T22:53:00.446Z,100976.22
2022-10-05T22:55:26.965Z,100978.94
2022-10-05T22:57:53.413Z,100987.91
2022-10-05T23:00:24.700Z,100983.59
2022-10-05T23:02:54.276Z,100983.69
2022-10-05T23:05:20.694Z,100982.09
2022-10-05T23:07:47.111Z,100985.63
2022-10-05T23:10:17.135Z,100985.97
2022-10-05T23:12:44.592Z,100993.69
2022-10-05T23:15:11.600Z,100996.47
2022-10-05T23:17:39.276Z,101005.03
2022-10-05T23:20:07.382Z,101003.84
2022-10-05T23:22:37.932Z,101002.16
2022-10-05T23:25:06.183Z,101015.09
2022-10-05T23:27:40.326Z,101013.66
2022-10-05T23:30:09.332Z,101017.91
2022-10-05T23:32:43.020Z,101018.84
2022-10-05T23:35:11.528Z,101013.75
2022-10-05T23:37:43.067Z,101022.97
2022-10-05T23:40:12.226Z,101028.72
2022-10-05T23:42:39.758Z,101022.63
2022-10-05T23:45:07.665Z,101021.34
2022-10-05T23:47:34.132Z,101022.69
2022-10-05T23:50:01.811Z,101023.44
2022-10-05T23:52:28.324Z,101034.69
2022-10-05T23:54:54.865Z,101032.78
2022-10-05T23:57:21.670Z,101032.41
2022-10-05T23:59:50.254Z,101038.97
